createdAt,value
2018-05-21T00:01:42.458Z,79.70
2018-05-21T00:04:12.049Z,79.60
2018-05-21T00:06:40.888Z,79.30
2018-05-21T00:09:09.721Z,79.50
2018-05-21T00:11:38.559Z,79.70
2018-05-21T00:14:07.409Z,80.20
2018-05-21T00:16:36.255Z,79.70
2018-05-21T00:19:05.089Z,79.80
2018-05-21T00:21:33.936Z,79.90
2018-05-21T00:24:02.796Z,79.80
2018-05-21T00:26:31.641Z,80.40
2018-05-21T00:29:00.479Z,79.40
2018-05-21T00:31:29.334Z,80.00
2018-05-21T00:33:58.183Z,79.40
2018-05-21T00:36:27.012Z,79.10
2018-05-21T00:38:55.886Z,78.90
2018-05-21T00:41:24.732Z,79.20
2018-05-21T00:43:53.653Z,78.10
2018-05-21T00:46:22.399Z,78.80
2018-05-21T00:48:51.218Z,78.10
2018-05-21T00:51:20.067Z,77.70
2018-05-21T00:53:48.892Z,77.70
2018-05-21T00:56:17.737Z,77.70
2018-05-21T00:58:46.567Z,77.40
2018-05-21T01:01:15.407Z,77.00
2018-05-21T01:03:44.239Z,76.20
2018-05-21T01:06:13.074Z,76.40
2018-05-21T01:08:41.916Z,77.00
2018-05-21T01:11:10.758Z,71.50
2018-05-21T01:13:39.585Z,72.80
2018-05-21T01:16:08.427Z,73.20
2018-05-21T01:18:37.253Z,73.60
2018-05-21T01:21:06.105Z,73.70
2018-05-21T01:23:34.928Z,73.30
2018-05-21T01:26:04.522Z,74.20
2018-05-21T01:28:33.355Z,74.50
2018-05-21T01:31:02.195Z,67.60
2018-05-21T01:33:31.032Z,64.70
2018-05-21T01:35:59.872Z,62.60
2018-05-21T01:38:28.713Z,64.10
2018-05-21T01:40:57.651Z,62.80
2018-05-21T01:43:26.488Z,60.70
2018-05-21T01:45:55.335Z,60.40
2018-05-21T01:48:24.907Z,64.70
2018-05-21T01:50:53.746Z,64.90
2018-05-21T01:53:22.575Z,60.20
2018-05-21T01:55:52.287Z,57.50
2018-05-21T01:58:21.114Z,58.50
2018-05-21T02:00:49.969Z,62.00
2018-05-21T02:03:18.804Z,57.40
2018-05-21T02:05:47.640Z,62.70
2018-05-21T02:08:16.487Z,63.80
2018-05-21T02:10:45.311Z,69.40
2018-05-21T02:13:14.155Z,70.80
2018-05-21T02:15:43.733Z,72.00
2018-05-21T02:18:12.581Z,72.00
2018-05-21T02:20:41.418Z,73.60
2018-05-21T02:23:10.259Z,74.40
2018-05-21T02:25:39.094Z,74.80
2018-05-21T02:28:07.926Z,74.90
2018-05-21T02:30:36.776Z,75.80
2018-05-21T02:33:05.602Z,75.70
2018-05-21T02:35:34.440Z,75.60
2018-05-21T02:38:03.284Z,75.20
2018-05-21T02:40:32.228Z,75.30
2018-05-21T02:43:01.092Z,75.60
2018-05-21T02:45:29.916Z,75.90
2018-05-21T02:47:58.771Z,75.90
2018-05-21T02:50:27.591Z,75.10
2018-05-21T02:52:56.434Z,75.10
2018-05-21T02:55:25.271Z,74.10
2018-05-21T02:57:54.116Z,73.90
2018-05-21T03:00:22.942Z,74.60
2018-05-21T03:02:51.782Z,73.80
2018-05-21T03:05:20.611Z,74.30
2018-05-21T03:07:49.453Z,74.40
2018-05-21T03:10:18.282Z,74.40
2018-05-21T03:12:47.125Z,72.40
2018-05-21T03:15:15.954Z,72.40
2018-05-21T03:17:44.793Z,71.90
2018-05-21T03:20:14.370Z,72.30
2018-05-21T03:22:43.216Z,72.00
2018-05-21T03:25:12.047Z,72.30
2018-05-21T03:27:40.883Z,69.20
2018-05-21T03:30:09.710Z,65.30
2018-05-21T03:32:38.558Z,63.50
2018-05-21T03:35:07.383Z,63.20
2018-05-21T03:37:36.213Z,61.40
2018-05-21T03:40:05.794Z,61.70
2018-05-21T03:42:34.640Z,60.40
2018-05-21T03:45:03.474Z,60.30
2018-05-21T03:47:32.310Z,60.30
2018-05-21T03:50:01.230Z,59.70
2018-05-21T03:52:29.976Z,60.00
2018-05-21T03:54:58.826Z,60.10
2018-05-21T03:57:27.671Z,59.50
2018-05-21T04:00:14.181Z,58.60
2018-05-21T04:03:00.934Z,58.60
2018-05-21T04:05:29.765Z,59.70
2018-05-21T04:07:59.358Z,60.70
2018-05-21T04:10:28.937Z,60.90
2018-05-21T04:12:57.767Z,59.50
2018-05-21T04:15:27.343Z,59.30
2018-05-21T04:17:56.185Z,58.30
2018-05-21T04:20:25.022Z,57.90
2018-05-21T04:22:53.860Z,57.90
2018-05-21T04:25:22.696Z,58.30
2018-05-21T04:27:51.552Z,58.20
2018-05-21T04:30:20.384Z,60.00
2018-05-21T04:32:49.241Z,59.30
2018-05-21T04:35:18.073Z,59.80
2018-05-21T04:37:46.913Z,60.10
2018-05-21T04:40:15.822Z,59.20
2018-05-21T04:42:44.668Z,60.70
2018-05-21T04:45:13.495Z,58.90
2018-05-21T04:47:42.327Z,59.00
2018-05-21T04:50:11.916Z,59.70
2018-05-21T04:52:40.737Z,59.50
2018-05-21T04:55:09.586Z,58.50
2018-05-21T04:57:38.418Z,58.40
2018-05-21T05:00:07.266Z,58.00
2018-05-21T05:02:36.088Z,58.60
2018-05-21T05:05:04.935Z,58.20
2018-05-21T05:07:33.758Z,58.60
2018-05-21T05:10:02.596Z,58.00
2018-05-21T05:12:31.431Z,58.90
2018-05-21T05:15:00.266Z,58.40
2018-05-21T05:17:29.096Z,58.50
2018-05-21T05:19:57.931Z,58.50
2018-05-21T05:22:26.756Z,58.90
2018-05-21T05:24:55.603Z,59.00
2018-05-21T05:27:24.502Z,58.70
2018-05-21T05:29:53.274Z,58.80
2018-05-21T05:32:22.843Z,58.90
2018-05-21T05:34:51.683Z,60.30
2018-05-21T05:37:20.521Z,59.70
2018-05-21T05:39:49.359Z,59.10
2018-05-21T05:42:18.301Z,59.30
2018-05-21T05:44:47.125Z,59.80
2018-05-21T05:47:15.961Z,59.10
2018-05-21T05:49:44.815Z,59.40
2018-05-21T05:52:13.649Z,59.20
2018-05-21T05:54:42.487Z,59.60
2018-05-21T05:57:12.187Z,59.70
2018-05-21T05:59:41.803Z,59.50
2018-05-21T06:02:11.489Z,59.50
2018-05-21T06:04:40.368Z,60.00
2018-05-21T06:07:09.270Z,59.70
2018-05-21T06:09:38.115Z,59.60
2018-05-21T06:12:06.949Z,59.60
2018-05-21T06:14:35.789Z,59.90
2018-05-21T06:17:04.627Z,59.50
2018-05-21T06:19:33.486Z,59.70
2018-05-21T06:22:02.312Z,59.30
2018-05-21T06:24:31.172Z,59.50
2018-05-21T06:27:00.002Z,59.20
2018-05-21T06:29:28.867Z,59.10
2018-05-21T06:31:57.700Z,59.50
2018-05-21T06:34:26.600Z,59.10
2018-05-21T06:36:55.368Z,58.60
2018-05-21T06:39:24.958Z,59.00
2018-05-21T06:41:53.808Z,59.30
2018-05-21T06:44:22.655Z,59.50
2018-05-21T06:46:52.220Z,59.50
2018-05-21T06:49:21.066Z,59.60
2018-05-21T06:51:49.888Z,59.00
2018-05-21T06:54:18.713Z,59.20
2018-05-21T06:56:47.561Z,59.20
2018-05-21T06:59:16.397Z,58.70
2018-05-21T07:01:45.979Z,59.80
2018-05-21T07:04:14.827Z,59.20
2018-05-21T07:06:43.676Z,59.30
2018-05-21T07:09:12.514Z,59.20
2018-05-21T07:11:41.352Z,59.60
2018-05-21T07:14:10.195Z,59.80
2018-05-21T07:16:39.040Z,60.00
2018-05-21T07:19:08.626Z,60.30
2018-05-21T07:21:37.474Z,59.30
2018-05-21T07:24:06.544Z,58.80
2018-05-21T07:26:35.224Z,58.70
2018-05-21T07:29:03.974Z,59.40
2018-05-21T07:31:32.925Z,58.90
2018-05-21T07:34:01.666Z,59.70
2018-05-21T07:36:30.496Z,59.30
2018-05-21T07:39:00.070Z,58.20
2018-05-21T07:41:28.963Z,59.60
2018-05-21T07:43:57.800Z,58.60
2018-05-21T07:46:26.875Z,59.10
2018-05-21T07:48:55.482Z,58.90
2018-05-21T07:51:24.335Z,57.90
2018-05-21T07:53:53.144Z,57.30
2018-05-21T07:56:21.990Z,57.80
2018-05-21T07:58:50.818Z,57.50
2018-05-21T08:01:20.398Z,58.40
2018-05-21T08:03:49.233Z,58.30
2018-05-21T08:06:18.157Z,57.90
2018-05-21T08:08:46.993Z,57.40
2018-05-21T08:11:16.023Z,58.00
2018-05-21T08:13:44.867Z,57.90
2018-05-21T08:16:13.797Z,58.00
2018-05-21T08:18:42.624Z,58.40
2018-05-21T08:21:11.472Z,58.00
2018-05-21T08:23:40.591Z,58.10
2018-05-21T08:26:09.423Z,58.30
2018-05-21T08:28:38.986Z,57.60
2018-05-21T08:31:07.830Z,58.40
2018-05-21T08:33:36.657Z,57.60
2018-05-21T08:36:05.511Z,58.10
2018-05-21T08:38:34.355Z,57.90
2018-05-21T08:41:03.298Z,58.00
2018-05-21T08:43:32.121Z,57.80
2018-05-21T08:46:00.961Z,58.00
2018-05-21T08:48:30.638Z,57.70
2018-05-21T08:50:59.390Z,57.70
2018-05-21T08:53:28.223Z,57.10
2018-05-21T08:55:57.063Z,57.30
2018-05-21T08:58:25.916Z,57.20
2018-05-21T09:00:54.752Z,57.60
2018-05-21T09:03:23.611Z,57.10
2018-05-21T09:08:21.884Z,56.50
2018-05-21T09:10:50.712Z,56.20
2018-05-21T09:13:19.568Z,55.90
2018-05-21T09:15:49.156Z,56.80
2018-05-21T09:18:18.058Z,56.40
2018-05-21T09:20:46.882Z,56.70
2018-05-21T09:23:15.725Z,56.40
2018-05-21T09:25:44.552Z,56.40
2018-05-21T09:28:13.392Z,55.80
2018-05-21T09:30:42.223Z,55.80
2018-05-21T09:33:11.088Z,56.50
2018-05-21T09:35:39.917Z,56.00
2018-05-21T09:38:09.506Z,56.70
2018-05-21T09:40:38.342Z,57.00
2018-05-21T09:43:07.186Z,56.70
2018-05-21T09:45:36.022Z,56.40
2018-05-21T09:48:04.962Z,56.50
2018-05-21T09:53:03.163Z,57.50
2018-05-21T09:55:31.991Z,56.50
2018-05-21T09:58:00.843Z,56.10
2018-05-21T10:00:29.723Z,56.30
2018-05-21T10:02:58.536Z,55.60
2018-05-21T10:05:28.115Z,55.60
2018-05-21T10:07:57.009Z,55.70
2018-05-21T10:10:25.815Z,55.50
2018-05-21T10:12:55.410Z,55.50
2018-05-21T10:15:24.233Z,54.90
2018-05-21T10:17:53.826Z,55.70
2018-05-21T10:20:22.658Z,54.50
2018-05-21T10:22:51.502Z,54.20
2018-05-21T10:25:21.101Z,54.00
2018-05-21T10:27:49.938Z,54.10
2018-05-21T10:30:18.781Z,54.40
2018-05-21T10:32:47.654Z,54.70
2018-05-21T10:35:16.492Z,54.40
2018-05-21T10:37:45.351Z,55.00
2018-05-21T10:40:14.215Z,54.30
2018-05-21T10:42:43.071Z,55.50
2018-05-21T10:45:11.910Z,54.80
2018-05-21T10:47:40.789Z,55.00
2018-05-21T10:50:09.602Z,55.00
2018-05-21T10:52:39.639Z,56.10
2018-05-21T10:55:08.031Z,53.40
2018-05-21T10:57:36.984Z,54.10
2018-05-21T11:00:06.482Z,54.10
2018-05-21T11:02:35.334Z,53.80
2018-05-21T11:05:04.166Z,53.80
2018-05-21T11:07:33.015Z,52.90
2018-05-21T11:10:01.874Z,52.60
2018-05-21T11:12:31.449Z,53.00
2018-05-21T11:15:00.288Z,53.10
2018-05-21T11:17:29.128Z,52.90
2018-05-21T11:19:57.987Z,52.20
2018-05-21T11:22:26.810Z,52.20
2018-05-21T11:24:55.649Z,52.20
2018-05-21T11:27:24.491Z,52.90
2018-05-21T11:29:53.331Z,51.60
2018-05-21T11:32:22.167Z,51.20
2018-05-21T11:34:51.015Z,51.80
2018-05-21T11:37:19.851Z,51.00
2018-05-21T11:39:48.694Z,51.40
2018-05-21T11:42:17.608Z,50.70
2018-05-21T11:44:46.454Z,51.10
2018-05-21T11:47:15.288Z,50.00
2018-05-21T11:49:44.140Z,50.10
2018-05-21T11:52:12.982Z,50.10
2018-05-21T11:54:41.832Z,49.80
2018-05-21T11:57:10.655Z,49.60
2018-05-21T11:59:39.521Z,50.10
2018-05-21T12:02:08.418Z,48.60
2018-05-21T12:04:37.224Z,48.60
2018-05-21T12:07:06.045Z,48.40
2018-05-21T12:09:35.625Z,48.10
2018-05-21T12:12:04.456Z,48.10
2018-05-21T12:14:33.312Z,48.00
2018-05-21T12:17:02.896Z,48.00
2018-05-21T12:19:31.741Z,47.80
2018-05-21T12:22:00.569Z,47.50
2018-05-21T12:24:29.423Z,47.30
2018-05-21T12:26:58.267Z,47.00
2018-05-21T12:29:27.119Z,46.70
2018-05-21T12:31:55.945Z,46.40
2018-05-21T12:34:24.802Z,45.50
2018-05-21T12:36:53.629Z,45.70
2018-05-21T12:39:22.490Z,44.80
2018-05-21T12:41:51.388Z,44.90
2018-05-21T12:44:20.223Z,45.00
2018-05-21T12:46:49.180Z,45.90
2018-05-21T12:49:18.681Z,45.20
2018-05-21T12:51:47.512Z,45.10
2018-05-21T12:54:16.371Z,45.30
2018-05-21T12:56:45.220Z,45.50
2018-05-21T12:59:14.072Z,44.80
2018-05-21T13:01:43.684Z,44.40
2018-05-21T13:06:41.920Z,46.00
2018-05-21T13:09:10.760Z,43.60
2018-05-21T13:11:39.599Z,43.40
2018-05-21T13:14:08.441Z,43.50
2018-05-21T13:16:37.273Z,43.10
2018-05-21T13:19:06.103Z,42.10
2018-05-21T13:21:35.694Z,42.20
2018-05-21T13:24:05.317Z,43.00
2018-05-21T13:26:34.142Z,43.00
2018-05-21T13:29:02.974Z,42.40
2018-05-21T13:31:31.814Z,43.70
2018-05-21T13:34:00.649Z,41.60
2018-05-21T13:36:29.502Z,42.10
2018-05-21T13:38:58.339Z,41.70
2018-05-21T13:41:27.232Z,41.80
2018-05-21T13:43:56.061Z,41.90
2018-05-21T13:46:24.909Z,42.20
2018-05-21T13:48:53.749Z,42.00
2018-05-21T13:51:22.578Z,41.80
2018-05-21T13:53:51.430Z,41.90
2018-05-21T13:56:20.270Z,41.50
2018-05-21T13:58:49.135Z,41.10
2018-05-21T14:01:17.958Z,41.70
2018-05-21T14:03:47.652Z,40.50
2018-05-21T14:06:16.385Z,41.00
2018-05-21T14:08:45.210Z,40.80
2018-05-21T14:11:14.047Z,40.20
2018-05-21T14:13:42.881Z,41.30
2018-05-21T14:16:11.796Z,40.70
2018-05-21T14:18:40.568Z,40.50
2018-05-21T14:21:09.425Z,40.50
2018-05-21T14:23:38.246Z,40.70
2018-05-21T14:26:07.086Z,40.40
2018-05-21T14:28:35.922Z,39.30
2018-05-21T14:31:04.820Z,37.90
2018-05-21T14:33:33.646Z,37.90
2018-05-21T14:36:02.491Z,37.40
2018-05-21T14:38:31.325Z,36.00
2018-05-21T14:41:00.539Z,37.00
2018-05-21T14:45:59.300Z,37.70
2018-05-21T14:48:28.128Z,37.90
2018-05-21T14:50:56.974Z,37.90
2018-05-21T14:53:25.828Z,37.00
2018-05-21T14:55:54.663Z,36.70
2018-05-21T14:58:23.504Z,37.00
2018-05-21T15:00:52.364Z,36.70
2018-05-21T15:03:21.943Z,36.70
2018-05-21T15:05:50.780Z,36.50
2018-05-21T15:08:19.604Z,36.40
2018-05-21T15:10:48.463Z,36.70
2018-05-21T15:13:17.298Z,36.90
2018-05-21T15:15:46.882Z,36.50
2018-05-21T15:18:15.730Z,37.00
2018-05-21T15:20:44.554Z,37.50
2018-05-21T15:23:13.390Z,37.30
2018-05-21T15:25:42.957Z,37.60
2018-05-21T15:28:11.807Z,37.20
2018-05-21T15:30:40.647Z,37.10
2018-05-21T15:33:09.483Z,37.40
2018-05-21T15:35:38.307Z,37.70
2018-05-21T15:38:07.155Z,37.20
2018-05-21T15:40:36.003Z,37.10
2018-05-21T15:43:04.834Z,36.40
2018-05-21T15:45:33.671Z,37.60
2018-05-21T15:48:02.529Z,37.30
2018-05-21T15:50:31.357Z,37.30
2018-05-21T15:53:00.208Z,37.50
2018-05-21T15:55:29.031Z,36.00
2018-05-21T15:57:57.880Z,36.60
2018-05-21T16:00:26.712Z,36.80
2018-05-21T16:02:55.544Z,36.30
2018-05-21T16:05:24.386Z,36.70
2018-05-21T16:07:53.232Z,36.90
2018-05-21T16:10:22.039Z,37.90
2018-05-21T16:12:50.885Z,38.70
2018-05-21T16:15:20.469Z,38.40
2018-05-21T16:17:49.338Z,38.30
2018-05-21T16:20:18.159Z,37.80
2018-05-21T16:22:46.994Z,38.30
2018-05-21T16:25:15.829Z,38.50
2018-05-21T16:27:44.691Z,39.50
2018-05-21T16:30:13.639Z,40.20
2018-05-21T16:32:42.383Z,39.70
2018-05-21T16:35:11.210Z,39.60
2018-05-21T16:37:40.162Z,38.70
2018-05-21T16:40:08.988Z,38.80
2018-05-21T16:42:37.853Z,38.30
2018-05-21T16:45:06.695Z,38.70
2018-05-21T16:47:35.540Z,39.10
2018-05-21T16:50:04.363Z,39.10
2018-05-21T16:52:33.205Z,40.20
2018-05-21T16:55:02.034Z,41.60
2018-05-21T16:57:30.887Z,42.20
2018-05-21T16:59:59.760Z,42.90
2018-05-21T17:02:28.556Z,42.30
2018-05-21T17:04:57.398Z,42.30
2018-05-21T17:07:26.970Z,43.00
2018-05-21T17:09:55.797Z,43.10
2018-05-21T17:12:24.660Z,42.50
2018-05-21T17:14:54.240Z,43.30
2018-05-21T17:17:23.080Z,45.50
2018-05-21T17:19:51.938Z,46.30
2018-05-21T17:22:20.914Z,46.40
2018-05-21T17:24:49.755Z,46.00
2018-05-21T17:27:18.583Z,46.70
2018-05-21T17:29:47.459Z,47.10
2018-05-21T17:32:16.264Z,46.90
2018-05-21T17:34:45.103Z,47.70
2018-05-21T17:37:13.943Z,48.90
2018-05-21T17:39:42.796Z,49.10
2018-05-21T17:42:11.725Z,49.00
2018-05-21T17:44:40.576Z,49.10
2018-05-21T17:47:09.413Z,48.80
2018-05-21T17:49:38.250Z,49.00
2018-05-21T17:52:07.087Z,49.60
2018-05-21T17:54:35.918Z,49.60
2018-05-21T17:57:04.753Z,49.80
2018-05-21T17:59:33.590Z,50.50
2018-05-21T18:02:02.426Z,51.40
2018-05-21T18:04:31.275Z,52.10
2018-05-21T18:07:00.110Z,52.20
2018-05-21T18:09:28.966Z,53.40
2018-05-21T18:11:57.809Z,52.90
2018-05-21T18:14:26.644Z,53.00
2018-05-21T18:16:55.471Z,53.40
2018-05-21T18:19:24.323Z,53.20
2018-05-21T18:21:53.165Z,53.10
2018-05-21T18:24:22.027Z,53.60
2018-05-21T18:26:50.860Z,53.20
2018-05-21T18:29:20.442Z,53.70
2018-05-21T18:31:49.283Z,53.40
2018-05-21T18:34:18.147Z,54.00
2018-05-21T18:36:46.984Z,53.40
2018-05-21T18:39:15.839Z,53.70
2018-05-21T18:41:44.779Z,53.70
2018-05-21T18:44:13.654Z,53.90
2018-05-21T18:46:42.466Z,54.70
2018-05-21T18:49:11.301Z,56.00
2018-05-21T18:51:40.146Z,56.40
2018-05-21T18:54:08.981Z,56.80
2018-05-21T18:56:37.809Z,57.30
2018-05-21T18:59:06.658Z,56.80
2018-05-21T19:01:35.487Z,56.90
2018-05-21T19:04:04.332Z,57.60
2018-05-21T19:06:33.172Z,57.90
2018-05-21T19:09:01.999Z,58.30
2018-05-21T19:11:30.845Z,57.60
2018-05-21T19:13:59.692Z,58.50
2018-05-21T19:16:28.549Z,58.80
2018-05-21T19:18:57.390Z,58.90
2018-05-21T19:21:26.241Z,59.30
2018-05-21T19:23:55.837Z,59.00
2018-05-21T19:26:24.682Z,58.30
2018-05-21T19:28:53.506Z,58.80
2018-05-21T19:31:22.369Z,58.50
2018-05-21T19:33:51.213Z,59.60
2018-05-21T19:36:20.080Z,59.70
2018-05-21T19:38:48.907Z,59.20
2018-05-21T19:41:18.537Z,60.30
2018-05-21T19:43:48.104Z,60.90
2018-05-21T19:46:16.955Z,60.90
2018-05-21T19:48:45.848Z,61.00
2018-05-21T19:51:14.695Z,61.70
2018-05-21T19:53:43.541Z,61.80
2018-05-21T19:56:12.377Z,62.20
2018-05-21T19:58:41.260Z,63.50
2018-05-21T20:01:10.143Z,62.80
2018-05-21T20:03:38.956Z,63.20
2018-05-21T20:06:08.553Z,63.50
2018-05-21T20:08:37.383Z,63.70
2018-05-21T20:11:06.223Z,64.40
2018-05-21T20:13:35.119Z,65.00
2018-05-21T20:16:03.941Z,65.80
2018-05-21T20:18:34.755Z,66.20
2018-05-21T20:21:03.636Z,67.20
2018-05-21T20:23:32.437Z,67.70
2018-05-21T20:26:02.041Z,68.00
2018-05-21T20:28:30.880Z,68.00
2018-05-21T20:30:59.724Z,67.70
2018-05-21T20:33:28.556Z,67.20
2018-05-21T20:35:57.404Z,66.70
2018-05-21T20:38:26.242Z,66.80
2018-05-21T20:40:55.142Z,67.20
2018-05-21T20:43:23.932Z,67.20
2018-05-21T20:45:53.510Z,67.10
2018-05-21T20:48:23.103Z,67.20
2018-05-21T20:50:51.951Z,67.30
2018-05-21T20:53:20.799Z,67.10
2018-05-21T20:55:49.691Z,67.90
2018-05-21T20:58:18.505Z,67.20
2018-05-21T21:00:47.357Z,67.50
2018-05-21T21:03:16.201Z,67.40
2018-05-21T21:05:45.040Z,67.70
2018-05-21T21:08:13.871Z,67.90
2018-05-21T21:10:42.778Z,68.40
2018-05-21T21:13:11.551Z,68.50
2018-05-21T21:18:09.844Z,68.40
2018-05-21T21:20:38.709Z,68.20
2018-05-21T21:23:07.537Z,68.40
2018-05-21T21:25:36.378Z,68.60
2018-05-21T21:28:05.227Z,68.60
2018-05-21T21:30:34.800Z,68.70
2018-05-21T21:33:03.664Z,68.90
2018-05-21T21:35:32.566Z,69.20
2018-05-21T21:38:01.425Z,70.00
2018-05-21T21:40:30.277Z,71.10
2018-05-21T21:42:59.161Z,71.00
2018-05-21T21:45:27.982Z,70.80
2018-05-21T21:47:57.563Z,70.10
2018-05-21T21:50:26.394Z,69.20
2018-05-21T21:52:55.240Z,68.90
2018-05-21T21:55:24.826Z,68.70
2018-05-21T21:57:53.651Z,68.60
2018-05-21T22:00:22.501Z,68.10
2018-05-21T22:02:51.339Z,68.10
2018-05-21T22:05:21.452Z,67.80
2018-05-21T22:07:51.198Z,68.10
2018-05-21T22:10:19.998Z,68.70
2018-05-21T22:12:48.879Z,69.10
2018-05-21T22:15:18.407Z,69.10
2018-05-21T22:17:47.251Z,69.10
2018-05-21T22:20:16.101Z,69.10
2018-05-21T22:22:44.968Z,68.50
2018-05-21T22:25:13.811Z,68.90
2018-05-21T22:27:43.457Z,68.50
2018-05-21T22:30:12.287Z,68.30
2018-05-21T22:32:41.141Z,68.20
2018-05-21T22:35:09.967Z,67.90
2018-05-21T22:37:39.569Z,67.50
2018-05-21T22:40:08.398Z,67.20
2018-05-21T22:42:37.492Z,66.90
2018-05-21T22:45:06.327Z,67.50
2018-05-21T22:47:35.185Z,68.20
2018-05-21T22:50:04.010Z,68.40
2018-05-21T22:52:32.881Z,69.00
2018-05-21T22:55:01.758Z,69.00
2018-05-21T22:57:30.572Z,68.70
2018-05-21T22:59:59.401Z,68.70
2018-05-21T23:02:28.256Z,69.00
2018-05-21T23:04:57.091Z,69.20
2018-05-21T23:07:25.927Z,70.30
2018-05-21T23:09:54.775Z,70.40
2018-05-21T23:12:23.611Z,70.50
2018-05-21T23:14:52.438Z,70.60
2018-05-21T23:17:22.359Z,70.30
2018-05-21T23:19:51.331Z,70.30
2018-05-21T23:22:20.068Z,70.50
2018-05-21T23:24:48.880Z,70.60
2018-05-21T23:27:17.709Z,71.00
2018-05-21T23:29:46.548Z,71.10
2018-05-21T23:32:15.376Z,71.20
2018-05-21T23:34:44.195Z,71.30
2018-05-21T23:37:13.040Z,71.30
2018-05-21T23:39:41.863Z,71.30
2018-05-21T23:42:10.717Z,71.60
2018-05-21T23:44:39.539Z,71.80
2018-05-21T23:47:08.367Z,71.90
2018-05-21T23:49:37.199Z,71.80
2018-05-21T23:52:06.026Z,71.80
2018-05-21T23:54:35.623Z,72.10
2018-05-21T23:57:04.434Z,71.70
2018-05-21T23:59:34.005Z,71.60
